KFOE/FOE METAR and TAF weather

Enter ICAO airport designator
Station Type Date Time Source
KFOE METAR 2020/01/26 18:53 UTC NOAA

KFOE 261853Z 10SM FEW120 06/01 A2999 RMK AO2 SLP164 T00560011


Station Type Date Time Source
KFOE Decoded METAR 2020/01/26 18:53 UTC NOAA

FORBES FIELD, KS, United States (KFOE) 38-56N 95-39W 320M
Jan 26, 2020 - 01:53 PM EST / 2020.01.26 1853 UTC
Visibility: 10 mile(s):0
Sky conditions: mostly clear
Temperature: 42.1 F (5.6 C)
Dew Point: 34.0 F (1.1 C)
Relative Humidity: 72%
Pressure (altimeter): 29.99 in. Hg (1015 hPa)
ob: KFOE 261853Z 10SM FEW120 06/01 A2999 RMK AO2 SLP164 T00560011
cycle: 19

Station Type Date Time Source
KFOE TAF 2020/01/26 18:27 UTC NOAA

TAF KFOE 261725Z 2618/2718 29005KT P6SM SCT100
FM270800 VRB03KT 4SM BR FEW004 SCT035
FM271400 33005KT P6SM BKN035

Example: see airport list